sensor_id;sensor_type;location;lat;lon;timestamp;temperature;humidity
69800;DHT22;67217;51.008;4.644;2024-01-25T00:00:25;9.70;88.20
69800;DHT22;67217;51.008;4.644;2024-01-25T00:02:53;9.80;88.10
69800;DHT22;67217;51.008;4.644;2024-01-25T00:05:21;9.70;88.40
69800;DHT22;67217;51.008;4.644;2024-01-25T00:07:49;9.60;88.60
69800;DHT22;67217;51.008;4.644;2024-01-25T00:10:18;9.60;89.60
69800;DHT22;67217;51.008;4.644;2024-01-25T00:12:45;9.60;89.60
69800;DHT22;67217;51.008;4.644;2024-01-25T00:15:13;9.60;88.70
69800;DHT22;67217;51.008;4.644;2024-01-25T00:17:42;9.60;88.30
69800;DHT22;67217;51.008;4.644;2024-01-25T00:20:10;9.60;88.50
69800;DHT22;67217;51.008;4.644;2024-01-25T00:22:38;9.50;89.10
69800;DHT22;67217;51.008;4.644;2024-01-25T00:25:06;9.40;89.50
69800;DHT22;67217;51.008;4.644;2024-01-25T00:27:34;9.30;89.80
69800;DHT22;67217;51.008;4.644;2024-01-25T00:30:02;9.20;90.20
69800;DHT22;67217;51.008;4.644;2024-01-25T00:32:31;9.10;90.40
69800;DHT22;67217;51.008;4.644;2024-01-25T00:34:59;9.00;90.70
69800;DHT22;67217;51.008;4.644;2024-01-25T00:37:27;9.00;90.70
69800;DHT22;67217;51.008;4.644;2024-01-25T00:39:55;9.00;90.50
69800;DHT22;67217;51.008;4.644;2024-01-25T00:42:24;9.00;90.60
69800;DHT22;67217;51.008;4.644;2024-01-25T00:44:52;8.90;90.80
69800;DHT22;67217;51.008;4.644;2024-01-25T00:47:20;8.90;90.90
69800;DHT22;67217;51.008;4.644;2024-01-25T00:49:48;8.90;90.80
69800;DHT22;67217;51.008;4.644;2024-01-25T00:52:16;8.80;91.10
69800;DHT22;67217;51.008;4.644;2024-01-25T00:54:44;8.80;91.50
69800;DHT22;67217;51.008;4.644;2024-01-25T00:57:12;8.70;91.30
69800;DHT22;67217;51.008;4.644;2024-01-25T00:59:40;8.80;91.20
69800;DHT22;67217;51.008;4.644;2024-01-25T01:02:13;8.80;91.30
69800;DHT22;67217;51.008;4.644;2024-01-25T01:04:39;8.80;91.20
69800;DHT22;67217;51.008;4.644;2024-01-25T01:07:07;8.80;91.20
69800;DHT22;67217;51.008;4.644;2024-01-25T01:09:35;8.70;91.20
69800;DHT22;67217;51.008;4.644;2024-01-25T01:12:03;8.80;91.10
69800;DHT22;67217;51.008;4.644;2024-01-25T01:14:31;8.80;90.90
69800;DHT22;67217;51.008;4.644;2024-01-25T01:16:59;8.70;91.20
69800;DHT22;67217;51.008;4.644;2024-01-25T01:19:26;8.60;91.40
69800;DHT22;67217;51.008;4.644;2024-01-25T01:21:54;8.50;91.40
69800;DHT22;67217;51.008;4.644;2024-01-25T01:24:22;8.50;91.40
69800;DHT22;67217;51.008;4.644;2024-01-25T01:26:50;8.40;91.50
69800;DHT22;67217;51.008;4.644;2024-01-25T01:29:18;8.40;91.60
69800;DHT22;67217;51.008;4.644;2024-01-25T01:31:46;8.30;91.80
69800;DHT22;67217;51.008;4.644;2024-01-25T01:34:13;8.40;91.70
69800;DHT22;67217;51.008;4.644;2024-01-25T01:36:41;8.40;91.60
69800;DHT22;67217;51.008;4.644;2024-01-25T01:39:09;8.40;91.50
69800;DHT22;67217;51.008;4.644;2024-01-25T01:41:37;8.40;91.50
69800;DHT22;67217;51.008;4.644;2024-01-25T01:44:05;8.40;91.80
69800;DHT22;67217;51.008;4.644;2024-01-25T01:46:38;8.30;91.70
69800;DHT22;67217;51.008;4.644;2024-01-25T01:49:04;8.30;91.70
69800;DHT22;67217;51.008;4.644;2024-01-25T01:51:32;8.30;91.70
69800;DHT22;67217;51.008;4.644;2024-01-25T01:54:02;8.20;91.80
69800;DHT22;67217;51.008;4.644;2024-01-25T01:56:30;8.10;91.90
69800;DHT22;67217;51.008;4.644;2024-01-25T01:59:02;8.00;92.10
69800;DHT22;67217;51.008;4.644;2024-01-25T02:01:30;8.00;92.30
69800;DHT22;67217;51.008;4.644;2024-01-25T02:03:58;8.00;92.30
69800;DHT22;67217;51.008;4.644;2024-01-25T02:06:26;8.00;92.20
69800;DHT22;67217;51.008;4.644;2024-01-25T02:08:54;8.00;92.20
69800;DHT22;67217;51.008;4.644;2024-01-25T02:11:23;7.90;92.30
69800;DHT22;67217;51.008;4.644;2024-01-25T02:13:50;7.90;92.20
69800;DHT22;67217;51.008;4.644;2024-01-25T02:16:18;7.80;92.40
69800;DHT22;67217;51.008;4.644;2024-01-25T02:18:47;7.90;92.40
69800;DHT22;67217;51.008;4.644;2024-01-25T02:21:14;7.90;92.40
69800;DHT22;67217;51.008;4.644;2024-01-25T02:23:42;7.80;92.70
69800;DHT22;67217;51.008;4.644;2024-01-25T02:26:10;7.80;92.70
69800;DHT22;67217;51.008;4.644;2024-01-25T02:28:38;7.80;92.60
69800;DHT22;67217;51.008;4.644;2024-01-25T02:31:05;7.90;92.40
69800;DHT22;67217;51.008;4.644;2024-01-25T02:33:33;7.80;92.40
69800;DHT22;67217;51.008;4.644;2024-01-25T02:36:00;7.80;92.40
69800;DHT22;67217;51.008;4.644;2024-01-25T02:38:28;7.80;92.30
69800;DHT22;67217;51.008;4.644;2024-01-25T02:40:56;7.70;92.40
69800;DHT22;67217;51.008;4.644;2024-01-25T02:43:24;7.70;92.60
69800;DHT22;67217;51.008;4.644;2024-01-25T02:45:51;7.60;92.50
69800;DHT22;67217;51.008;4.644;2024-01-25T02:48:19;7.60;92.60
69800;DHT22;67217;51.008;4.644;2024-01-25T02:50:47;7.60;92.70
69800;DHT22;67217;51.008;4.644;2024-01-25T02:53:14;7.60;92.30
69800;DHT22;67217;51.008;4.644;2024-01-25T02:55:42;7.60;92.30
69800;DHT22;67217;51.008;4.644;2024-01-25T02:58:09;7.60;92.40
69800;DHT22;67217;51.008;4.644;2024-01-25T03:00:37;7.50;92.50
69800;DHT22;67217;51.008;4.644;2024-01-25T03:03:05;7.50;92.40
69800;DHT22;67217;51.008;4.644;2024-01-25T03:05:32;7.40;92.40
69800;DHT22;67217;51.008;4.644;2024-01-25T03:08:01;7.30;92.70
69800;DHT22;67217;51.008;4.644;2024-01-25T03:10:29;7.30;92.50
69800;DHT22;67217;51.008;4.644;2024-01-25T03:12:57;7.20;92.50
69800;DHT22;67217;51.008;4.644;2024-01-25T03:15:25;7.20;92.50
69800;DHT22;67217;51.008;4.644;2024-01-25T03:17:52;7.20;92.30
69800;DHT22;67217;51.008;4.644;2024-01-25T03:20:20;7.20;92.40
69800;DHT22;67217;51.008;4.644;2024-01-25T03:23:07;7.20;92.50
69800;DHT22;67217;51.008;4.644;2024-01-25T03:25:34;7.20;92.50
69800;DHT22;67217;51.008;4.644;2024-01-25T03:28:02;7.10;92.60
69800;DHT22;67217;51.008;4.644;2024-01-25T03:30:32;7.10;92.60
69800;DHT22;67217;51.008;4.644;2024-01-25T03:32:59;7.00;92.80
69800;DHT22;67217;51.008;4.644;2024-01-25T03:35:27;7.10;92.70
69800;DHT22;67217;51.008;4.644;2024-01-25T03:37:55;7.10;92.80
69800;DHT22;67217;51.008;4.644;2024-01-25T03:40:22;7.10;92.40
69800;DHT22;67217;51.008;4.644;2024-01-25T03:42:50;7.10;92.40
69800;DHT22;67217;51.008;4.644;2024-01-25T03:45:18;7.00;92.60
69800;DHT22;67217;51.008;4.644;2024-01-25T03:47:45;7.00;92.60
69800;DHT22;67217;51.008;4.644;2024-01-25T03:50:13;6.90;92.60
69800;DHT22;67217;51.008;4.644;2024-01-25T03:52:41;6.80;92.80
69800;DHT22;67217;51.008;4.644;2024-01-25T03:55:09;6.80;93.10
69800;DHT22;67217;51.008;4.644;2024-01-25T03:57:36;6.70;93.10
69800;DHT22;67217;51.008;4.644;2024-01-25T04:00:07;6.70;93.20
69800;DHT22;67217;51.008;4.644;2024-01-25T04:02:35;6.70;93.10
69800;DHT22;67217;51.008;4.644;2024-01-25T04:05:04;6.70;93.00
69800;DHT22;67217;51.008;4.644;2024-01-25T04:07:31;6.70;93.00
69800;DHT22;67217;51.008;4.644;2024-01-25T04:09:59;6.70;92.80
69800;DHT22;67217;51.008;4.644;2024-01-25T04:12:27;6.60;92.80
69800;DHT22;67217;51.008;4.644;2024-01-25T04:14:54;6.60;93.20
69800;DHT22;67217;51.008;4.644;2024-01-25T04:17:22;6.60;93.50
69800;DHT22;67217;51.008;4.644;2024-01-25T04:19:50;6.70;93.10
69800;DHT22;67217;51.008;4.644;2024-01-25T04:22:17;6.70;93.00
69800;DHT22;67217;51.008;4.644;2024-01-25T04:24:45;6.70;92.90
69800;DHT22;67217;51.008;4.644;2024-01-25T04:27:14;6.60;93.00
69800;DHT22;67217;51.008;4.644;2024-01-25T04:29:43;6.60;93.20
69800;DHT22;67217;51.008;4.644;2024-01-25T04:32:12;6.60;93.40
69800;DHT22;67217;51.008;4.644;2024-01-25T04:34:40;6.50;93.30
69800;DHT22;67217;51.008;4.644;2024-01-25T04:37:07;6.50;93.20
69800;DHT22;67217;51.008;4.644;2024-01-25T04:39:35;6.60;93.20
69800;DHT22;67217;51.008;4.644;2024-01-25T04:42:03;6.50;93.20
69800;DHT22;67217;51.008;4.644;2024-01-25T04:44:30;6.50;93.30
69800;DHT22;67217;51.008;4.644;2024-01-25T04:46:58;6.40;93.50
69800;DHT22;67217;51.008;4.644;2024-01-25T04:49:26;6.40;93.70
69800;DHT22;67217;51.008;4.644;2024-01-25T04:51:54;6.40;93.70
69800;DHT22;67217;51.008;4.644;2024-01-25T04:54:21;6.50;93.50
69800;DHT22;67217;51.008;4.644;2024-01-25T04:56:49;6.50;93.50
69800;DHT22;67217;51.008;4.644;2024-01-25T04:59:17;6.50;93.40
69800;DHT22;67217;51.008;4.644;2024-01-25T05:01:44;6.50;93.60
69800;DHT22;67217;51.008;4.644;2024-01-25T05:04:12;6.50;93.30
69800;DHT22;67217;51.008;4.644;2024-01-25T05:06:40;6.40;93.40
69800;DHT22;67217;51.008;4.644;2024-01-25T05:09:07;6.40;93.40
69800;DHT22;67217;51.008;4.644;2024-01-25T05:11:39;6.50;93.50
69800;DHT22;67217;51.008;4.644;2024-01-25T05:14:07;6.40;93.70
69800;DHT22;67217;51.008;4.644;2024-01-25T05:16:35;6.40;93.80
69800;DHT22;67217;51.008;4.644;2024-01-25T05:19:02;6.30;93.70
69800;DHT22;67217;51.008;4.644;2024-01-25T05:21:30;6.20;93.80
69800;DHT22;67217;51.008;4.644;2024-01-25T05:23:58;6.10;94.10
69800;DHT22;67217;51.008;4.644;2024-01-25T05:26:26;6.20;94.10
69800;DHT22;67217;51.008;4.644;2024-01-25T05:28:54;6.30;93.80
69800;DHT22;67217;51.008;4.644;2024-01-25T05:31:22;6.30;93.60
69800;DHT22;67217;51.008;4.644;2024-01-25T05:33:49;6.20;93.60
69800;DHT22;67217;51.008;4.644;2024-01-25T05:36:17;6.10;93.80
69800;DHT22;67217;51.008;4.644;2024-01-25T05:38:45;6.20;93.70
69800;DHT22;67217;51.008;4.644;2024-01-25T05:41:12;6.10;93.90
69800;DHT22;67217;51.008;4.644;2024-01-25T05:43:40;6.10;94.00
69800;DHT22;67217;51.008;4.644;2024-01-25T05:46:08;6.00;94.20
69800;DHT22;67217;51.008;4.644;2024-01-25T05:48:36;6.10;94.20
69800;DHT22;67217;51.008;4.644;2024-01-25T05:51:04;6.10;94.00
69800;DHT22;67217;51.008;4.644;2024-01-25T05:53:32;6.10;94.00
69800;DHT22;67217;51.008;4.644;2024-01-25T05:55:59;6.10;94.10
69800;DHT22;67217;51.008;4.644;2024-01-25T05:58:27;6.20;94.10
69800;DHT22;67217;51.008;4.644;2024-01-25T06:00:55;6.20;94.00
69800;DHT22;67217;51.008;4.644;2024-01-25T06:03:22;6.20;93.90
69800;DHT22;67217;51.008;4.644;2024-01-25T06:05:50;6.20;94.00
69800;DHT22;67217;51.008;4.644;2024-01-25T06:08:17;6.20;93.90
69800;DHT22;67217;51.008;4.644;2024-01-25T06:10:45;6.20;93.90
69800;DHT22;67217;51.008;4.644;2024-01-25T06:13:13;6.10;94.00
69800;DHT22;67217;51.008;4.644;2024-01-25T06:15:41;6.10;94.40
69800;DHT22;67217;51.008;4.644;2024-01-25T06:18:09;6.10;94.30
69800;DHT22;67217;51.008;4.644;2024-01-25T06:20:36;6.10;94.10
69800;DHT22;67217;51.008;4.644;2024-01-25T06:23:04;6.30;94.20
69800;DHT22;67217;51.008;4.644;2024-01-25T06:25:32;6.30;94.00
69800;DHT22;67217;51.008;4.644;2024-01-25T06:28:01;6.40;93.40
69800;DHT22;67217;51.008;4.644;2024-01-25T06:30:30;6.30;93.80
69800;DHT22;67217;51.008;4.644;2024-01-25T06:32:58;6.20;93.90
69800;DHT22;67217;51.008;4.644;2024-01-25T06:35:45;6.10;94.20
69800;DHT22;67217;51.008;4.644;2024-01-25T06:38:13;6.00;94.40
69800;DHT22;67217;51.008;4.644;2024-01-25T06:40:40;6.10;94.40
69800;DHT22;67217;51.008;4.644;2024-01-25T06:43:08;6.30;94.00
69800;DHT22;67217;51.008;4.644;2024-01-25T06:45:38;6.50;93.50
69800;DHT22;67217;51.008;4.644;2024-01-25T06:48:07;6.30;93.60
69800;DHT22;67217;51.008;4.644;2024-01-25T06:50:38;6.20;94.20
69800;DHT22;67217;51.008;4.644;2024-01-25T06:53:05;6.20;94.30
69800;DHT22;67217;51.008;4.644;2024-01-25T06:55:33;6.10;94.40
69800;DHT22;67217;51.008;4.644;2024-01-25T06:58:00;6.20;94.40
69800;DHT22;67217;51.008;4.644;2024-01-25T07:00:28;6.40;94.20
69800;DHT22;67217;51.008;4.644;2024-01-25T07:02:56;6.50;93.80
69800;DHT22;67217;51.008;4.644;2024-01-25T07:05:23;6.30;94.00
69800;DHT22;67217;51.008;4.644;2024-01-25T07:07:51;6.10;94.40
69800;DHT22;67217;51.008;4.644;2024-01-25T07:10:19;6.10;94.70
69800;DHT22;67217;51.008;4.644;2024-01-25T07:12:48;6.10;94.80
69800;DHT22;67217;51.008;4.644;2024-01-25T07:15:16;6.10;94.80
69800;DHT22;67217;51.008;4.644;2024-01-25T07:17:44;6.10;94.80
69800;DHT22;67217;51.008;4.644;2024-01-25T07:20:12;6.20;94.90
69800;DHT22;67217;51.008;4.644;2024-01-25T07:22:40;6.40;94.40
69800;DHT22;67217;51.008;4.644;2024-01-25T07:25:08;6.50;94.10
69800;DHT22;67217;51.008;4.644;2024-01-25T07:27:54;6.50;94.00
69800;DHT22;67217;51.008;4.644;2024-01-25T07:30:22;6.50;94.00
69800;DHT22;67217;51.008;4.644;2024-01-25T07:32:50;6.40;94.10
69800;DHT22;67217;51.008;4.644;2024-01-25T07:35:18;6.50;94.30
69800;DHT22;67217;51.008;4.644;2024-01-25T07:37:46;6.50;94.10
69800;DHT22;67217;51.008;4.644;2024-01-25T07:40:13;6.40;94.30
69800;DHT22;67217;51.008;4.644;2024-01-25T07:42:41;6.50;94.40
69800;DHT22;67217;51.008;4.644;2024-01-25T07:45:09;6.40;94.50
69800;DHT22;67217;51.008;4.644;2024-01-25T07:47:37;6.40;94.80
69800;DHT22;67217;51.008;4.644;2024-01-25T07:50:05;6.50;94.60
69800;DHT22;67217;51.008;4.644;2024-01-25T07:52:33;6.50;94.50
69800;DHT22;67217;51.008;4.644;2024-01-25T07:55:00;6.70;94.30
69800;DHT22;67217;51.008;4.644;2024-01-25T07:57:28;6.50;94.10
69800;DHT22;67217;51.008;4.644;2024-01-25T07:59:56;6.40;94.30
69800;DHT22;67217;51.008;4.644;2024-01-25T08:02:24;6.40;94.60
69800;DHT22;67217;51.008;4.644;2024-01-25T08:04:51;6.40;94.80
69800;DHT22;67217;51.008;4.644;2024-01-25T08:07:39;6.60;94.70
69800;DHT22;67217;51.008;4.644;2024-01-25T08:10:08;6.60;94.30
69800;DHT22;67217;51.008;4.644;2024-01-25T08:12:36;6.50;94.80
69800;DHT22;67217;51.008;4.644;2024-01-25T08:15:06;6.60;94.50
69800;DHT22;67217;51.008;4.644;2024-01-25T08:17:33;6.60;94.50
69800;DHT22;67217;51.008;4.644;2024-01-25T08:20:02;6.50;94.70
69800;DHT22;67217;51.008;4.644;2024-01-25T08:22:32;6.50;94.80
69800;DHT22;67217;51.008;4.644;2024-01-25T08:25:00;6.70;94.80
69800;DHT22;67217;51.008;4.644;2024-01-25T08:27:27;6.70;94.60
69800;DHT22;67217;51.008;4.644;2024-01-25T08:29:55;6.80;94.50
69800;DHT22;67217;51.008;4.644;2024-01-25T08:32:23;6.90;94.40
69800;DHT22;67217;51.008;4.644;2024-01-25T08:34:50;6.90;94.30
69800;DHT22;67217;51.008;4.644;2024-01-25T08:37:18;6.70;94.50
69800;DHT22;67217;51.008;4.644;2024-01-25T08:39:46;6.80;94.90
69800;DHT22;67217;51.008;4.644;2024-01-25T08:42:17;6.90;94.60
69800;DHT22;67217;51.008;4.644;2024-01-25T08:44:45;6.80;94.60
69800;DHT22;67217;51.008;4.644;2024-01-25T08:47:16;6.90;94.90
69800;DHT22;67217;51.008;4.644;2024-01-25T08:49:44;7.10;94.40
69800;DHT22;67217;51.008;4.644;2024-01-25T08:52:12;7.20;93.70
69800;DHT22;67217;51.008;4.644;2024-01-25T08:54:40;7.20;93.70
69800;DHT22;67217;51.008;4.644;2024-01-25T08:57:08;7.00;94.00
69800;DHT22;67217;51.008;4.644;2024-01-25T08:59:36;6.80;94.40
69800;DHT22;67217;51.008;4.644;2024-01-25T09:02:04;6.90;94.70
69800;DHT22;67217;51.008;4.644;2024-01-25T09:04:33;7.00;94.20
69800;DHT22;67217;51.008;4.644;2024-01-25T09:07:00;7.10;94.30
69800;DHT22;67217;51.008;4.644;2024-01-25T09:09:28;7.10;94.30
69800;DHT22;67217;51.008;4.644;2024-01-25T09:11:56;7.20;94.30
69800;DHT22;67217;51.008;4.644;2024-01-25T09:14:23;7.40;93.80
69800;DHT22;67217;51.008;4.644;2024-01-25T09:16:51;7.60;93.50
69800;DHT22;67217;51.008;4.644;2024-01-25T09:19:19;7.80;93.00
69800;DHT22;67217;51.008;4.644;2024-01-25T09:21:46;7.90;92.40
69800;DHT22;67217;51.008;4.644;2024-01-25T09:24:14;8.00;92.30
69800;DHT22;67217;51.008;4.644;2024-01-25T09:26:42;8.20;92.00
69800;DHT22;67217;51.008;4.644;2024-01-25T09:29:09;8.20;91.80
69800;DHT22;67217;51.008;4.644;2024-01-25T09:31:37;8.40;91.60
69800;DHT22;67217;51.008;4.644;2024-01-25T09:34:05;8.20;91.60
69800;DHT22;67217;51.008;4.644;2024-01-25T09:36:33;8.00;92.20
69800;DHT22;67217;51.008;4.644;2024-01-25T09:39:20;8.00;92.40
69800;DHT22;67217;51.008;4.644;2024-01-25T09:41:48;8.20;92.30
69800;DHT22;67217;51.008;4.644;2024-01-25T09:44:15;8.50;92.00
69800;DHT22;67217;51.008;4.644;2024-01-25T09:46:45;8.60;91.50
69800;DHT22;67217;51.008;4.644;2024-01-25T09:49:13;8.60;91.40
69800;DHT22;67217;51.008;4.644;2024-01-25T09:51:41;8.80;91.30
69800;DHT22;67217;51.008;4.644;2024-01-25T09:54:10;8.70;91.40
69800;DHT22;67217;51.008;4.644;2024-01-25T09:56:39;8.60;91.70
69800;DHT22;67217;51.008;4.644;2024-01-25T10:01:58;8.60;91.50
69800;DHT22;67217;51.008;4.644;2024-01-25T10:04:26;8.40;92.00
69800;DHT22;67217;51.008;4.644;2024-01-25T10:06:57;8.20;92.60
69800;DHT22;67217;51.008;4.644;2024-01-25T10:09:25;8.20;92.70
69800;DHT22;67217;51.008;4.644;2024-01-25T10:11:53;8.40;92.80
69800;DHT22;67217;51.008;4.644;2024-01-25T10:14:21;8.80;91.70
69800;DHT22;67217;51.008;4.644;2024-01-25T10:16:55;8.90;91.40
69800;DHT22;67217;51.008;4.644;2024-01-25T10:19:23;9.00;91.20
69800;DHT22;67217;51.008;4.644;2024-01-25T10:21:50;9.00;91.10
69800;DHT22;67217;51.008;4.644;2024-01-25T10:24:18;8.90;91.20
69800;DHT22;67217;51.008;4.644;2024-01-25T10:26:46;9.00;91.50
69800;DHT22;67217;51.008;4.644;2024-01-25T10:29:15;9.10;91.20
69800;DHT22;67217;51.008;4.644;2024-01-25T10:31:43;9.20;91.10
69800;DHT22;67217;51.008;4.644;2024-01-25T10:34:13;9.30;90.80
69800;DHT22;67217;51.008;4.644;2024-01-25T10:36:42;9.30;90.80
69800;DHT22;67217;51.008;4.644;2024-01-25T10:39:11;9.50;90.60
69800;DHT22;67217;51.008;4.644;2024-01-25T10:41:41;9.40;90.70
69800;DHT22;67217;51.008;4.644;2024-01-25T10:44:10;9.50;90.40
69800;DHT22;67217;51.008;4.644;2024-01-25T10:46:39;9.60;90.30
69800;DHT22;67217;51.008;4.644;2024-01-25T10:49:08;9.60;90.40
69800;DHT22;67217;51.008;4.644;2024-01-25T10:51:36;9.90;89.00
69800;DHT22;67217;51.008;4.644;2024-01-25T10:54:04;10.00;88.80
69800;DHT22;67217;51.008;4.644;2024-01-25T10:56:35;10.00;88.70
69800;DHT22;67217;51.008;4.644;2024-01-25T10:59:03;10.40;87.80
69800;DHT22;67217;51.008;4.644;2024-01-25T11:01:34;10.80;91.90
69800;DHT22;67217;51.008;4.644;2024-01-25T11:04:02;10.50;86.30
69800;DHT22;67217;51.008;4.644;2024-01-25T11:06:31;10.40;87.10
69800;DHT22;67217;51.008;4.644;2024-01-25T11:09:06;10.30;88.40
69800;DHT22;67217;51.008;4.644;2024-01-25T11:11:36;10.10;88.60
69800;DHT22;67217;51.008;4.644;2024-01-25T11:14:11;10.00;89.50
69800;DHT22;67217;51.008;4.644;2024-01-25T11:16:37;9.90;89.40
69800;DHT22;67217;51.008;4.644;2024-01-25T11:19:07;9.90;90.00
69800;DHT22;67217;51.008;4.644;2024-01-25T11:21:48;10.10;87.80
69800;DHT22;67217;51.008;4.644;2024-01-25T11:24:19;10.10;88.80
69800;DHT22;67217;51.008;4.644;2024-01-25T11:26:46;10.10;88.10
69800;DHT22;67217;51.008;4.644;2024-01-25T11:29:14;10.10;89.20
69800;DHT22;67217;51.008;4.644;2024-01-25T11:31:46;10.10;89.70
69800;DHT22;67217;51.008;4.644;2024-01-25T11:34:15;10.40;88.60
69800;DHT22;67217;51.008;4.644;2024-01-25T11:36:45;10.40;88.40
69800;DHT22;67217;51.008;4.644;2024-01-25T11:39:15;10.20;88.80
69800;DHT22;67217;51.008;4.644;2024-01-25T11:41:50;10.40;88.70
69800;DHT22;67217;51.008;4.644;2024-01-25T11:44:22;10.60;87.20
69800;DHT22;67217;51.008;4.644;2024-01-25T11:46:53;10.80;87.40
69800;DHT22;67217;51.008;4.644;2024-01-25T11:49:22;10.90;86.60
69800;DHT22;67217;51.008;4.644;2024-01-25T11:51:49;11.20;85.20
69800;DHT22;67217;51.008;4.644;2024-01-25T11:54:17;11.20;84.90
69800;DHT22;67217;51.008;4.644;2024-01-25T11:56:45;11.20;85.40
69800;DHT22;67217;51.008;4.644;2024-01-25T11:59:14;11.10;86.10
69800;DHT22;67217;51.008;4.644;2024-01-25T12:01:41;11.00;87.00
69800;DHT22;67217;51.008;4.644;2024-01-25T12:04:09;10.90;86.50
69800;DHT22;67217;51.008;4.644;2024-01-25T12:06:37;11.00;87.40
69800;DHT22;67217;51.008;4.644;2024-01-25T12:09:09;11.00;87.30
69800;DHT22;67217;51.008;4.644;2024-01-25T12:11:40;10.90;87.80
69800;DHT22;67217;51.008;4.644;2024-01-25T12:14:11;10.50;91.90
69800;DHT22;67217;51.008;4.644;2024-01-25T12:16:39;11.00;87.90
69800;DHT22;67217;51.008;4.644;2024-01-25T12:19:08;11.10;86.70
69800;DHT22;67217;51.008;4.644;2024-01-25T12:21:36;11.10;86.30
69800;DHT22;67217;51.008;4.644;2024-01-25T12:24:05;10.70;87.80
69800;DHT22;67217;51.008;4.644;2024-01-25T12:26:36;10.80;87.50
69800;DHT22;67217;51.008;4.644;2024-01-25T12:29:04;10.80;87.80
69800;DHT22;67217;51.008;4.644;2024-01-25T12:31:32;10.60;90.00
69800;DHT22;67217;51.008;4.644;2024-01-25T12:34:01;10.60;89.80
69800;DHT22;67217;51.008;4.644;2024-01-25T12:36:29;10.60;90.00
69800;DHT22;67217;51.008;4.644;2024-01-25T12:38:56;10.60;90.30
69800;DHT22;67217;51.008;4.644;2024-01-25T12:41:24;10.50;90.50
69800;DHT22;67217;51.008;4.644;2024-01-25T12:43:52;10.50;90.50
69800;DHT22;67217;51.008;4.644;2024-01-25T12:46:20;10.60;90.90
69800;DHT22;67217;51.008;4.644;2024-01-25T12:48:47;10.50;91.20
69800;DHT22;67217;51.008;4.644;2024-01-25T12:51:15;10.50;91.30
69800;DHT22;67217;51.008;4.644;2024-01-25T12:53:43;10.50;91.50
69800;DHT22;67217;51.008;4.644;2024-01-25T12:56:11;10.40;91.90
69800;DHT22;67217;51.008;4.644;2024-01-25T12:58:38;10.40;91.70
69800;DHT22;67217;51.008;4.644;2024-01-25T13:01:06;10.40;91.90
69800;DHT22;67217;51.008;4.644;2024-01-25T13:03:34;10.50;92.00
69800;DHT22;67217;51.008;4.644;2024-01-25T13:06:02;10.40;92.00
69800;DHT22;67217;51.008;4.644;2024-01-25T13:08:29;10.60;91.80
69800;DHT22;67217;51.008;4.644;2024-01-25T13:10:57;10.60;91.80
69800;DHT22;67217;51.008;4.644;2024-01-25T13:13:25;10.60;91.30
69800;DHT22;67217;51.008;4.644;2024-01-25T13:15:53;10.60;91.60
69800;DHT22;67217;51.008;4.644;2024-01-25T13:18:20;10.60;91.60
69800;DHT22;67217;51.008;4.644;2024-01-25T13:20:48;10.60;96.30
69800;DHT22;67217;51.008;4.644;2024-01-25T13:23:16;10.80;91.50
69800;DHT22;67217;51.008;4.644;2024-01-25T13:25:43;10.60;91.60
69800;DHT22;67217;51.008;4.644;2024-01-25T13:28:11;10.70;91.90
69800;DHT22;67217;51.008;4.644;2024-01-25T13:30:39;10.80;91.80
69800;DHT22;67217;51.008;4.644;2024-01-25T13:33:06;10.90;91.10
69800;DHT22;67217;51.008;4.644;2024-01-25T13:35:34;10.90;91.30
69800;DHT22;67217;51.008;4.644;2024-01-25T13:38:02;11.00;91.30
69800;DHT22;67217;51.008;4.644;2024-01-25T13:40:30;11.00;91.30
69800;DHT22;67217;51.008;4.644;2024-01-25T13:42:58;11.00;91.50
69800;DHT22;67217;51.008;4.644;2024-01-25T13:45:26;11.00;91.50
69800;DHT22;67217;51.008;4.644;2024-01-25T13:47:54;11.10;91.40
69800;DHT22;67217;51.008;4.644;2024-01-25T13:50:21;11.00;91.30
69800;DHT22;67217;51.008;4.644;2024-01-25T13:52:49;11.00;91.00
69800;DHT22;67217;51.008;4.644;2024-01-25T13:55:17;11.10;91.10
69800;DHT22;67217;51.008;4.644;2024-01-25T13:57:44;11.20;91.00
69800;DHT22;67217;51.008;4.644;2024-01-25T14:00:13;11.30;90.80
69800;DHT22;67217;51.008;4.644;2024-01-25T14:02:41;11.40;90.60
69800;DHT22;67217;51.008;4.644;2024-01-25T14:05:12;11.30;90.70
69800;DHT22;67217;51.008;4.644;2024-01-25T14:07:40;11.20;90.90
69800;DHT22;67217;51.008;4.644;2024-01-25T14:10:09;11.30;93.80
69800;DHT22;67217;51.008;4.644;2024-01-25T14:12:37;11.30;91.10
69800;DHT22;67217;51.008;4.644;2024-01-25T14:15:05;11.30;90.90
69800;DHT22;67217;51.008;4.644;2024-01-25T14:17:32;11.30;91.50
69800;DHT22;67217;51.008;4.644;2024-01-25T14:20:02;11.30;91.40
69800;DHT22;67217;51.008;4.644;2024-01-25T14:22:31;11.50;95.40
69800;DHT22;67217;51.008;4.644;2024-01-25T14:24:59;11.10;91.70
69800;DHT22;67217;51.008;4.644;2024-01-25T14:27:46;11.20;91.60
69800;DHT22;67217;51.008;4.644;2024-01-25T14:30:15;11.20;92.30
69800;DHT22;67217;51.008;4.644;2024-01-25T14:32:43;11.10;91.60
69800;DHT22;67217;51.008;4.644;2024-01-25T14:35:11;11.20;91.50
69800;DHT22;67217;51.008;4.644;2024-01-25T14:37:38;11.10;91.50
69800;DHT22;67217;51.008;4.644;2024-01-25T14:40:07;10.90;91.70
69800;DHT22;67217;51.008;4.644;2024-01-25T14:42:35;11.00;92.20
69800;DHT22;67217;51.008;4.644;2024-01-25T14:45:04;11.00;92.10
69800;DHT22;67217;51.008;4.644;2024-01-25T14:47:32;11.10;91.60
69800;DHT22;67217;51.008;4.644;2024-01-25T14:49:59;11.10;92.80
69800;DHT22;67217;51.008;4.644;2024-01-25T14:52:27;11.10;91.60
69800;DHT22;67217;51.008;4.644;2024-01-25T14:54:55;11.10;92.10
69800;DHT22;67217;51.008;4.644;2024-01-25T14:57:22;11.00;92.40
69800;DHT22;67217;51.008;4.644;2024-01-25T14:59:50;11.00;92.30
69800;DHT22;67217;51.008;4.644;2024-01-25T15:02:18;10.90;92.50
69800;DHT22;67217;51.008;4.644;2024-01-25T15:04:45;11.10;92.70
69800;DHT22;67217;51.008;4.644;2024-01-25T15:07:13;11.00;92.40
69800;DHT22;67217;51.008;4.644;2024-01-25T15:09:45;11.00;91.80
69800;DHT22;67217;51.008;4.644;2024-01-25T15:12:13;11.10;92.20
69800;DHT22;67217;51.008;4.644;2024-01-25T15:14:41;11.00;92.40
69800;DHT22;67217;51.008;4.644;2024-01-25T15:17:09;11.00;92.50
69800;DHT22;67217;51.008;4.644;2024-01-25T15:19:36;10.90;92.60
69800;DHT22;67217;51.008;4.644;2024-01-25T15:22:04;11.00;92.60
69800;DHT22;67217;51.008;4.644;2024-01-25T15:24:32;10.90;92.90
69800;DHT22;67217;51.008;4.644;2024-01-25T15:27:00;11.00;92.80
69800;DHT22;67217;51.008;4.644;2024-01-25T15:29:27;11.00;92.90
69800;DHT22;67217;51.008;4.644;2024-01-25T15:31:55;11.00;92.60
69800;DHT22;67217;51.008;4.644;2024-01-25T15:34:23;10.90;92.90
69800;DHT22;67217;51.008;4.644;2024-01-25T15:36:50;10.90;93.00
69800;DHT22;67217;51.008;4.644;2024-01-25T15:39:18;10.80;92.70
69800;DHT22;67217;51.008;4.644;2024-01-25T15:41:46;10.90;93.30
69800;DHT22;67217;51.008;4.644;2024-01-25T15:44:15;10.80;92.70
69800;DHT22;67217;51.008;4.644;2024-01-25T15:46:43;10.90;93.10
69800;DHT22;67217;51.008;4.644;2024-01-25T15:49:11;10.90;93.20
69800;DHT22;67217;51.008;4.644;2024-01-25T15:51:39;10.90;92.80